createdAt,value
2023-03-07T00:01:26.888Z,99872.97
2023-03-07T00:03:55.795Z,99867.88
2023-03-07T00:06:24.724Z,99864.75
2023-03-07T00:08:53.863Z,99866.44
2023-03-07T00:11:22.469Z,99859.28
2023-03-07T00:13:50.825Z,99859.69
2023-03-07T00:16:22.194Z,99847.38
2023-03-07T00:18:53.150Z,99844.06
2023-03-07T00:21:23.519Z,99841.09
2023-03-07T00:23:54.077Z,99847.34
2023-03-07T00:26:24.687Z,99835.28
2023-03-07T00:28:54.779Z,99840.53
2023-03-07T00:31:24.188Z,99836.94
2023-03-07T00:33:53.954Z,99839.13
2023-03-07T00:36:24.155Z,99830.78
2023-03-07T00:38:53.237Z,99830.41
2023-03-07T00:41:23.261Z,99832.50
2023-03-07T00:43:52.305Z,99818.72
2023-03-07T00:46:22.410Z,99818.56
2023-03-07T00:48:51.282Z,99824.88
2023-03-07T00:51:21.758Z,99821.03
2023-03-07T00:53:50.100Z,99821.59
2023-03-07T00:56:20.482Z,99816.09
2023-03-07T00:58:49.628Z,99811.34
2023-03-07T01:01:20.793Z,99813.84
2023-03-07T01:03:50.409Z,99811.19
2023-03-07T01:06:22.835Z,99797.94
2023-03-07T01:08:51.212Z,99801.19
2023-03-07T01:11:19.663Z,99791.16
2023-03-07T01:13:48.113Z,99804.69
2023-03-07T01:16:19.514Z,99795.19
2023-03-07T01:18:50.907Z,99800.38
2023-03-07T01:21:22.869Z,99794.19
2023-03-07T01:23:51.406Z,99780.91
2023-03-07T01:26:21.780Z,99780.13
2023-03-07T01:28:52.552Z,99774.03
2023-03-07T01:31:21.867Z,99782.31
2023-03-07T01:33:51.570Z,99775.28
2023-03-07T01:36:25.475Z,99774.91
2023-03-07T01:38:56.632Z,99779.44
2023-03-07T01:41:29.774Z,99773.03
2023-03-07T01:43:58.049Z,99776.09
2023-03-07T01:46:47.231Z,99776.97
2023-03-07T01:49:24.083Z,99768.03
2023-03-07T01:51:59.137Z,99767.47
2023-03-07T01:54:28.567Z,99770.66
2023-03-07T01:56:57.333Z,99758.13
2023-03-07T01:59:31.057Z,99762.97
2023-03-07T02:02:04.845Z,99761.72
2023-03-07T02:04:38.182Z,99759.44
2023-03-07T02:07:10.167Z,99755.97
2023-03-07T02:09:40.142Z,99753.88
2023-03-07T02:12:10.223Z,99753.94
2023-03-07T02:14:39.524Z,99755.94
2023-03-07T02:17:08.161Z,99749.09
2023-03-07T02:19:49.740Z,99751.38
2023-03-07T02:22:20.786Z,99750.81
2023-03-07T02:24:54.436Z,99756.72
2023-03-07T02:27:25.930Z,99758.69
2023-03-07T02:29:54.536Z,99751.72
2023-03-07T02:32:23.178Z,99762.44
2023-03-07T02:34:51.570Z,99754.91
2023-03-07T02:37:23.885Z,99751.16
2023-03-07T02:39:52.291Z,99745.34
2023-03-07T02:42:25.966Z,99753.03
2023-03-07T02:44:58.858Z,99746.94
2023-03-07T02:47:27.729Z,99745.78
2023-03-07T02:49:56.060Z,99739.94
2023-03-07T02:52:25.310Z,99751.59
2023-03-07T02:54:53.737Z,99738.38
2023-03-07T02:57:22.026Z,99742.19
2023-03-07T02:59:54.665Z,99736.94
2023-03-07T03:02:23.142Z,99735.94
2023-03-07T03:04:51.694Z,99732.56
2023-03-07T03:07:20.061Z,99736.78
2023-03-07T03:09:48.506Z,99727.44
2023-03-07T03:12:17.011Z,99738.34
2023-03-07T03:14:45.339Z,99737.00
2023-03-07T03:17:15.206Z,99733.34
2023-03-07T03:19:43.846Z,99728.19
2023-03-07T03:22:12.371Z,99733.22
2023-03-07T03:24:41.682Z,99733.78
2023-03-07T03:27:10.856Z,99729.81
2023-03-07T03:29:39.653Z,99732.22
2023-03-07T03:32:08.831Z,99727.06
2023-03-07T03:34:39.112Z,99722.78
2023-03-07T03:37:08.020Z,99731.94
2023-03-07T03:39:36.340Z,99735.22
2023-03-07T03:42:06.338Z,99731.63
2023-03-07T03:44:34.730Z,99730.88
2023-03-07T03:47:04.269Z,99721.44
2023-03-07T03:49:33.208Z,99731.00
2023-03-07T03:52:02.930Z,99730.31
2023-03-07T03:54:31.229Z,99722.13
2023-03-07T03:56:59.612Z,99718.22
2023-03-07T03:59:28.159Z,99719.00
2023-03-07T04:01:56.598Z,99719.53
2023-03-07T04:04:25.139Z,99703.66
2023-03-07T04:06:53.626Z,99708.66
2023-03-07T04:09:24.367Z,99703.38
2023-03-07T04:11:52.822Z,99704.22
2023-03-07T04:14:21.188Z,99697.91
2023-03-07T04:16:49.591Z,99696.09
2023-03-07T04:19:18.221Z,99695.03
2023-03-07T04:21:46.656Z,99701.44
2023-03-07T04:24:14.960Z,99702.50
2023-03-07T04:26:44.756Z,99696.69
2023-03-07T04:29:13.233Z,99703.84
2023-03-07T04:31:41.887Z,99707.03
2023-03-07T04:34:10.434Z,99704.06
2023-03-07T04:36:38.859Z,99706.75
2023-03-07T04:39:07.228Z,99715.25
2023-03-07T04:41:35.528Z,99718.41
2023-03-07T04:44:05.595Z,99717.06
2023-03-07T04:46:33.899Z,99712.00
2023-03-07T04:49:02.467Z,99703.22
2023-03-07T04:51:31.178Z,99712.22
2023-03-07T04:53:59.571Z,99706.34
2023-03-07T04:56:28.130Z,99710.28
2023-03-07T04:58:56.419Z,99717.13
2023-03-07T05:01:26.189Z,99717.56
2023-03-07T05:03:55.650Z,99714.81
2023-03-07T05:06:24.874Z,99717.53
2023-03-07T05:08:53.218Z,99711.47
2023-03-07T05:11:22.713Z,99720.75
2023-03-07T05:13:51.001Z,99726.25
2023-03-07T05:16:19.383Z,99730.03
2023-03-07T05:18:49.348Z,99720.00
2023-03-07T05:21:17.799Z,99727.16
2023-03-07T05:23:46.152Z,99729.81
2023-03-07T05:26:14.529Z,99731.84
2023-03-07T05:28:42.861Z,99732.13
2023-03-07T05:31:11.321Z,99738.09
2023-03-07T05:33:42.734Z,99724.75
2023-03-07T05:36:12.530Z,99732.63
2023-03-07T05:38:40.976Z,99739.56
2023-03-07T05:41:09.428Z,99747.56
2023-03-07T05:43:37.885Z,99747.03
2023-03-07T05:46:06.586Z,99739.16
2023-03-07T05:48:34.990Z,99743.44
2023-03-07T05:51:03.441Z,99743.09
2023-03-07T05:53:33.235Z,99744.94
2023-03-07T05:56:01.637Z,99748.69
2023-03-07T05:58:30.178Z,99741.25
2023-03-07T06:00:58.522Z,99742.84
2023-03-07T06:03:26.949Z,99747.09
2023-03-07T06:05:55.287Z,99746.50
2023-03-07T06:08:23.743Z,99742.75
2023-03-07T06:10:53.748Z,99747.88
2023-03-07T06:13:24.457Z,99747.00
2023-03-07T06:15:53.922Z,99744.06
2023-03-07T06:18:23.990Z,99748.03
2023-03-07T06:20:59.960Z,99745.28
2023-03-07T06:23:29.130Z,99752.53
2023-03-07T06:26:02.225Z,99750.53
2023-03-07T06:28:32.796Z,99757.94
2023-03-07T06:31:01.467Z,99760.38
2023-03-07T06:33:30.426Z,99762.91
2023-03-07T06:35:58.781Z,99767.53
2023-03-07T06:38:28.087Z,99770.38
2023-03-07T06:40:57.554Z,99758.09
2023-03-07T06:43:27.350Z,99771.59
2023-03-07T06:45:55.871Z,99759.03
2023-03-07T06:48:24.430Z,99765.56
2023-03-07T06:50:52.900Z,99763.56
2023-03-07T06:53:21.510Z,99763.91
2023-03-07T06:55:50.994Z,99758.38
2023-03-07T06:58:19.785Z,99762.78
2023-03-07T07:00:49.597Z,99762.09
2023-03-07T07:03:20.728Z,99768.00
2023-03-07T07:05:49.102Z,99767.44
2023-03-07T07:08:17.396Z,99776.56
2023-03-07T07:10:46.945Z,99764.88
2023-03-07T07:13:15.239Z,99768.47
2023-03-07T07:15:43.601Z,99775.66
2023-03-07T07:18:15.197Z,99772.41
2023-03-07T07:20:44.409Z,99775.75
2023-03-07T07:23:12.797Z,99772.78
2023-03-07T07:25:41.094Z,99770.38
2023-03-07T07:28:09.570Z,99772.06
2023-03-07T07:30:37.904Z,99763.63
2023-03-07T07:33:06.341Z,99759.06
2023-03-07T07:35:36.099Z,99768.47
2023-03-07T07:38:04.718Z,99766.91
2023-03-07T07:40:33.059Z,99765.88
2023-03-07T07:43:01.377Z,99758.69
2023-03-07T07:45:29.675Z,99771.91
2023-03-07T07:47:58.092Z,99761.97
2023-03-07T07:50:26.413Z,99762.16
2023-03-07T07:52:56.205Z,99765.53
2023-03-07T07:55:25.086Z,99761.09
2023-03-07T07:57:54.161Z,99762.38
2023-03-07T08:00:22.998Z,99760.94
2023-03-07T08:02:52.211Z,99772.56
2023-03-07T08:05:21.570Z,99770.94
2023-03-07T08:07:50.968Z,99772.72
2023-03-07T08:10:21.882Z,99766.16
2023-03-07T08:12:52.238Z,99763.66
2023-03-07T08:15:23.017Z,99767.44
2023-03-07T08:17:52.609Z,99758.97
2023-03-07T08:20:22.578Z,99762.00
2023-03-07T08:22:53.078Z,99760.97
2023-03-07T08:25:25.646Z,99755.41
2023-03-07T08:27:55.524Z,99762.56
2023-03-07T08:30:24.954Z,99750.22
2023-03-07T08:32:54.544Z,99751.88
2023-03-07T08:35:23.768Z,99753.47
2023-03-07T08:37:55.985Z,99752.81
2023-03-07T08:40:26.313Z,99750.41
2023-03-07T08:42:55.358Z,99754.34
2023-03-07T08:45:24.159Z,99749.09
2023-03-07T08:47:54.571Z,99751.63
2023-03-07T08:50:23.468Z,99757.94
2023-03-07T08:52:51.821Z,99749.97
2023-03-07T08:55:20.580Z,99746.50
2023-03-07T08:57:50.476Z,99751.19
2023-03-07T09:00:19.685Z,99746.03
2023-03-07T09:02:48.138Z,99739.63
2023-03-07T09:05:16.547Z,99737.06
2023-03-07T09:07:44.980Z,99736.94
2023-03-07T09:10:13.394Z,99737.19
2023-03-07T09:12:41.748Z,99741.66
2023-03-07T09:15:12.516Z,99730.75
2023-03-07T09:17:41.051Z,99730.97
2023-03-07T09:20:11.995Z,99734.88
2023-03-07T09:22:40.276Z,99723.88
2023-03-07T09:25:09.439Z,99736.31
2023-03-07T09:27:37.817Z,99734.06
2023-03-07T09:30:07.381Z,99733.50
2023-03-07T09:32:37.584Z,99725.34
2023-03-07T09:35:06.698Z,99736.31
2023-03-07T09:37:34.954Z,99736.72
2023-03-07T09:40:05.164Z,99739.69
2023-03-07T09:42:41.517Z,99735.63
2023-03-07T09:45:22.750Z,99727.47
2023-03-07T09:48:10.173Z,99738.28
2023-03-07T09:50:45.636Z,99732.25
2023-03-07T09:53:21.776Z,99731.84
2023-03-07T09:55:52.882Z,99726.81
2023-03-07T09:58:24.945Z,99722.34
2023-03-07T10:01:00.046Z,99722.63
2023-03-07T10:03:43.004Z,99728.34
2023-03-07T10:06:16.020Z,99717.13
2023-03-07T10:08:44.511Z,99713.13
2023-03-07T10:11:24.851Z,99704.41
2023-03-07T10:14:10.160Z,99705.25
2023-03-07T10:16:46.646Z,99697.50
2023-03-07T10:19:26.615Z,99704.97
2023-03-07T10:22:04.835Z,99707.75
2023-03-07T10:24:49.116Z,99712.25
2023-03-07T10:27:17.685Z,99699.91
2023-03-07T10:29:48.759Z,99702.84
2023-03-07T10:32:33.414Z,99697.47
2023-03-07T10:35:16.250Z,99704.03
2023-03-07T10:37:50.488Z,99698.38
2023-03-07T10:40:26.932Z,99690.41
2023-03-07T10:42:56.408Z,99693.09
2023-03-07T10:45:24.889Z,99688.88
2023-03-07T10:47:53.240Z,99681.34
2023-03-07T10:50:32.633Z,99678.84
2023-03-07T10:53:03.731Z,99682.59
2023-03-07T10:55:43.016Z,99677.03
2023-03-07T10:58:16.950Z,99686.03
2023-03-07T11:00:45.847Z,99669.63
2023-03-07T11:03:28.255Z,99671.50
2023-03-07T11:06:00.024Z,99674.53
2023-03-07T11:08:31.893Z,99665.06
2023-03-07T11:11:01.286Z,99663.25
2023-03-07T11:13:30.412Z,99655.00
2023-03-07T11:16:17.877Z,99660.31
2023-03-07T11:18:46.491Z,99655.03
2023-03-07T11:21:33.766Z,99657.50
2023-03-07T11:24:04.857Z,99653.06
2023-03-07T11:26:40.481Z,99646.00
2023-03-07T11:29:10.593Z,99651.88
2023-03-07T11:31:53.167Z,99646.41
2023-03-07T11:34:45.306Z,99641.41
2023-03-07T11:37:33.177Z,99638.72
2023-03-07T11:40:19.859Z,99626.53
2023-03-07T11:43:00.600Z,99623.28
2023-03-07T11:45:40.150Z,99619.44
2023-03-07T11:48:20.329Z,99627.19
2023-03-07T11:50:54.565Z,99617.34
2023-03-07T11:53:44.616Z,99613.19
2023-03-07T11:56:26.225Z,99610.22
2023-03-07T11:59:36.590Z,99604.59
2023-03-07T12:02:22.330Z,99603.44
2023-03-07T12:05:21.570Z,99611.25
2023-03-07T12:08:04.703Z,99607.22
2023-03-07T12:10:50.175Z,99603.53
2023-03-07T12:13:31.954Z,99593.78
2023-03-07T12:16:09.365Z,99599.94
2023-03-07T12:19:02.327Z,99605.97
2023-03-07T12:21:46.091Z,99601.81
2023-03-07T12:24:19.253Z,99599.47
2023-03-07T12:26:55.300Z,99599.56
2023-03-07T12:29:35.805Z,99604.47
2023-03-07T12:32:11.171Z,99610.03
2023-03-07T12:34:45.297Z,99604.03
2023-03-07T12:37:17.997Z,99604.09
2023-03-07T12:39:51.880Z,99606.75
2023-03-07T12:42:32.302Z,99604.47
2023-03-07T12:45:06.322Z,99596.00
2023-03-07T12:47:50.538Z,99595.41
2023-03-07T12:50:25.096Z,99602.66
2023-03-07T12:52:57.732Z,99605.91
2023-03-07T12:55:30.842Z,99602.19
2023-03-07T12:58:08.529Z,99601.28
2023-03-07T13:00:41.527Z,99599.00
2023-03-07T13:03:18.356Z,99586.97
2023-03-07T13:05:47.062Z,99591.34
2023-03-07T13:08:23.560Z,99583.63
2023-03-07T13:10:52.461Z,99581.06
2023-03-07T13:13:57.104Z,99585.28
2023-03-07T13:16:41.147Z,99573.69
2023-03-07T13:19:49.491Z,99572.25
2023-03-07T13:23:00.260Z,99576.97
2023-03-07T13:25:57.251Z,99566.97
2023-03-07T13:28:52.539Z,99566.81
2023-03-07T13:34:46.980Z,99556.38
2023-03-07T13:37:45.562Z,99555.06
2023-03-07T13:40:39.290Z,99548.09
2023-03-07T13:43:57.946Z,99544.97
2023-03-07T13:46:51.257Z,99547.38
2023-03-07T13:49:45.657Z,99551.97
2023-03-07T13:52:39.247Z,99548.91
2023-03-07T13:55:26.298Z,99550.50
2023-03-07T13:57:58.237Z,99552.06
2023-03-07T14:00:32.587Z,99551.19
2023-03-07T14:03:01.074Z,99546.88
2023-03-07T14:05:34.750Z,99540.31
2023-03-07T14:08:03.850Z,99547.28
2023-03-07T14:10:33.155Z,99550.78
2023-03-07T14:13:29.707Z,99553.63
2023-03-07T14:16:25.218Z,99552.06
2023-03-07T14:19:04.482Z,99552.38
2023-03-07T14:21:45.729Z,99556.75
2023-03-07T14:24:27.709Z,99554.41
2023-03-07T14:27:00.876Z,99556.38
2023-03-07T14:29:31.120Z,99564.22
2023-03-07T14:32:01.134Z,99559.06
2023-03-07T14:34:33.140Z,99563.31
2023-03-07T14:37:06.572Z,99560.72
2023-03-07T14:39:49.902Z,99555.88
2023-03-07T14:42:27.111Z,99565.59
2023-03-07T14:45:20.158Z,99568.47
2023-03-07T14:48:10.849Z,99572.66
2023-03-07T14:50:44.341Z,99569.16
2023-03-07T14:53:21.923Z,99571.13
2023-03-07T14:55:52.788Z,99564.13
2023-03-07T14:58:24.492Z,99571.00
2023-03-07T15:01:00.635Z,99567.50
2023-03-07T15:03:29.811Z,99548.13
2023-03-07T15:05:59.923Z,99567.22
2023-03-07T15:08:32.075Z,99562.13
2023-03-07T15:11:06.529Z,99562.38
2023-03-07T15:13:39.729Z,99562.44
2023-03-07T15:16:13.843Z,99561.06
2023-03-07T15:18:45.992Z,99556.97
2023-03-07T15:21:20.839Z,99563.47
2023-03-07T15:23:55.260Z,99558.19
2023-03-07T15:26:26.108Z,99563.47
2023-03-07T15:29:01.513Z,99565.63
2023-03-07T15:31:33.966Z,99569.94
2023-03-07T15:34:13.287Z,99573.72
2023-03-07T15:36:41.768Z,99580.66
2023-03-07T15:39:33.566Z,99586.66
2023-03-07T15:42:07.534Z,99590.44
2023-03-07T15:44:36.504Z,99588.06
2023-03-07T15:47:14.002Z,99585.06
2023-03-07T15:49:44.218Z,99584.44
2023-03-07T15:52:28.114Z,99590.88
2023-03-07T15:54:59.625Z,99587.41
2023-03-07T15:57:32.690Z,99582.88
2023-03-07T16:00:02.971Z,99592.94
2023-03-07T16:02:47.414Z,99607.44
2023-03-07T16:05:33.087Z,99613.75
2023-03-07T16:08:01.627Z,99609.69
2023-03-07T16:10:33.026Z,99623.38
2023-03-07T16:13:03.929Z,99614.44
2023-03-07T16:15:32.524Z,99618.19
2023-03-07T16:18:00.885Z,99623.69
2023-03-07T16:20:30.323Z,99636.59
2023-03-07T16:22:59.016Z,99627.00
2023-03-07T16:25:32.179Z,99630.44
2023-03-07T16:28:01.165Z,99632.28
2023-03-07T16:30:30.577Z,99625.50
2023-03-07T16:32:58.903Z,99629.53
2023-03-07T16:35:29.271Z,99629.13
2023-03-07T16:37:57.733Z,99631.28
2023-03-07T16:40:27.333Z,99632.34
2023-03-07T16:42:57.058Z,99628.25
2023-03-07T16:45:27.778Z,99635.47
2023-03-07T16:47:59.574Z,99650.69
2023-03-07T16:50:30.068Z,99653.00
2023-03-07T16:52:58.490Z,99645.69
2023-03-07T16:55:28.548Z,99648.09
2023-03-07T16:58:03.057Z,99643.94
2023-03-07T17:00:31.984Z,99645.97
2023-03-07T17:03:02.314Z,99650.69
2023-03-07T17:05:30.879Z,99653.53
2023-03-07T17:08:00.377Z,99645.69
2023-03-07T17:10:29.786Z,99648.41
2023-03-07T17:13:01.527Z,99659.56
2023-03-07T17:15:32.323Z,99655.50
2023-03-07T17:18:01.651Z,99661.47
2023-03-07T17:20:30.155Z,99668.56
2023-03-07T17:22:58.532Z,99671.22
2023-03-07T17:25:28.433Z,99672.16
2023-03-07T17:28:02.672Z,99676.56
2023-03-07T17:30:33.211Z,99673.91
2023-03-07T17:33:02.366Z,99667.13
2023-03-07T17:35:30.987Z,99672.28
2023-03-07T17:37:59.628Z,99668.69
2023-03-07T17:40:28.156Z,99676.34
2023-03-07T17:42:57.542Z,99677.88
2023-03-07T17:45:27.312Z,99685.88
2023-03-07T17:47:56.735Z,99671.72
2023-03-07T17:50:25.715Z,99671.13
2023-03-07T17:52:55.542Z,99681.69
2023-03-07T17:55:26.194Z,99680.28
2023-03-07T17:57:54.806Z,99676.16
2023-03-07T18:00:24.280Z,99671.81
2023-03-07T18:02:54.143Z,99678.56
2023-03-07T18:05:26.385Z,99679.66
2023-03-07T18:07:55.358Z,99674.50
2023-03-07T18:10:23.988Z,99674.34
2023-03-07T18:12:53.965Z,99676.72
2023-03-07T18:15:23.563Z,99675.44
2023-03-07T18:17:53.384Z,99671.91
2023-03-07T18:20:22.671Z,99671.84
2023-03-07T18:22:51.408Z,99674.09
2023-03-07T18:25:20.176Z,99671.28
2023-03-07T18:27:48.842Z,99669.09
2023-03-07T18:30:17.964Z,99673.69
2023-03-07T18:32:46.441Z,99674.22
2023-03-07T18:35:16.850Z,99670.28
2023-03-07T18:37:45.717Z,99678.31
2023-03-07T18:40:15.010Z,99669.31
2023-03-07T18:42:43.713Z,99676.38
2023-03-07T18:45:13.345Z,99670.41
2023-03-07T18:47:41.676Z,99675.34
2023-03-07T18:50:11.704Z,99677.22
2023-03-07T18:52:41.592Z,99675.13
2023-03-07T18:55:10.954Z,99675.25
2023-03-07T18:57:39.388Z,99673.50
2023-03-07T19:00:11.420Z,99675.88
2023-03-07T19:02:40.290Z,99673.97
2023-03-07T19:05:10.803Z,99667.88
2023-03-07T19:07:40.731Z,99673.75
2023-03-07T19:10:10.220Z,99672.78
2023-03-07T19:12:38.658Z,99683.81
2023-03-07T19:15:08.048Z,99681.75
2023-03-07T19:17:41.204Z,99685.84
2023-03-07T19:20:11.076Z,99679.94
2023-03-07T19:22:40.862Z,99675.09
2023-03-07T19:25:10.121Z,99676.44
2023-03-07T19:27:38.693Z,99681.09
2023-03-07T19:30:08.244Z,99683.31
2023-03-07T19:32:36.640Z,99673.84
2023-03-07T19:35:06.633Z,99672.41
2023-03-07T19:37:36.797Z,99669.75
2023-03-07T19:40:08.389Z,99681.75
2023-03-07T19:42:36.935Z,99677.66
2023-03-07T19:45:07.144Z,99679.38
2023-03-07T19:47:35.509Z,99682.06
2023-03-07T19:50:03.838Z,99682.56
2023-03-07T19:52:32.291Z,99684.59
2023-03-07T19:55:00.764Z,99685.81
2023-03-07T19:57:30.586Z,99677.50
2023-03-07T19:59:58.945Z,99678.81
2023-03-07T20:02:29.463Z,99684.94
2023-03-07T20:04:58.932Z,99685.91
2023-03-07T20:07:27.391Z,99683.56
2023-03-07T20:09:55.783Z,99674.75
2023-03-07T20:12:24.208Z,99684.84
2023-03-07T20:14:54.161Z,99693.22
2023-03-07T20:17:22.569Z,99694.63
2023-03-07T20:19:52.006Z,99692.28
2023-03-07T20:22:20.776Z,99697.63
2023-03-07T20:24:51.049Z,99693.53
2023-03-07T20:27:21.973Z,99687.56
2023-03-07T20:29:50.532Z,99689.09
2023-03-07T20:32:20.809Z,99690.84
2023-03-07T20:34:52.840Z,99685.81
2023-03-07T20:37:21.405Z,99684.25
2023-03-07T20:39:49.780Z,99690.38
2023-03-07T20:42:18.087Z,99682.53
2023-03-07T20:44:46.607Z,99683.28
2023-03-07T20:47:14.998Z,99687.50
2023-03-07T20:49:45.290Z,99686.75
2023-03-07T20:52:14.202Z,99687.50
2023-03-07T20:54:44.192Z,99687.84
2023-03-07T20:57:12.602Z,99689.09
2023-03-07T20:59:40.928Z,99692.25
2023-03-07T21:02:09.403Z,99688.16
2023-03-07T21:04:37.971Z,99680.13
2023-03-07T21:07:07.650Z,99681.56
2023-03-07T21:09:36.120Z,99681.44
2023-03-07T21:12:05.487Z,99675.13
2023-03-07T21:14:33.846Z,99674.34
2023-03-07T21:17:04.093Z,99668.38
2023-03-07T21:19:32.484Z,99672.59
2023-03-07T21:22:00.936Z,99673.72
2023-03-07T21:24:30.722Z,99666.00
2023-03-07T21:26:59.416Z,99660.03
2023-03-07T21:29:27.739Z,99659.41
2023-03-07T21:31:56.161Z,99663.66
2023-03-07T21:34:24.567Z,99655.94
2023-03-07T21:36:56.287Z,99659.72
2023-03-07T21:39:25.987Z,99649.31
2023-03-07T21:41:56.074Z,99656.06
2023-03-07T21:44:24.450Z,99652.69
2023-03-07T21:46:52.780Z,99648.72
2023-03-07T21:49:22.287Z,99653.84
2023-03-07T21:51:50.710Z,99650.16
2023-03-07T21:54:19.075Z,99651.97
2023-03-07T21:56:47.545Z,99640.09
2023-03-07T21:59:17.298Z,99645.22
2023-03-07T22:01:45.629Z,99646.06
2023-03-07T22:04:14.005Z,99633.09
2023-03-07T22:06:42.433Z,99643.53
2023-03-07T22:09:10.754Z,99638.84
2023-03-07T22:11:39.137Z,99638.81
2023-03-07T22:14:07.532Z,99647.88
2023-03-07T22:16:37.354Z,99630.31
2023-03-07T22:19:05.726Z,99652.63
2023-03-07T22:21:34.869Z,99630.56
2023-03-07T22:24:03.330Z,99635.91
2023-03-07T22:26:32.939Z,99635.22
2023-03-07T22:29:02.810Z,99626.94
2023-03-07T22:31:31.547Z,99627.09
2023-03-07T22:34:01.459Z,99629.09
2023-03-07T22:36:29.932Z,99642.44
2023-03-07T22:38:58.610Z,99635.53
2023-03-07T22:41:27.292Z,99631.41
2023-03-07T22:43:55.928Z,99629.00
2023-03-07T22:46:24.665Z,99635.31
2023-03-07T22:48:54.229Z,99628.25
2023-03-07T22:51:25.577Z,99625.34
2023-03-07T22:53:54.076Z,99635.66
2023-03-07T22:56:24.958Z,99643.53
2023-03-07T22:58:53.443Z,99637.94
2023-03-07T23:01:23.545Z,99643.69
2023-03-07T23:03:52.744Z,99639.06
2023-03-07T23:06:24.408Z,99637.31
2023-03-07T23:08:54.715Z,99651.09
2023-03-07T23:11:25.636Z,99641.75
2023-03-07T23:13:54.705Z,99639.44
2023-03-07T23:16:24.438Z,99649.47
2023-03-07T23:18:54.992Z,99648.53
2023-03-07T23:21:27.657Z,99654.75
2023-03-07T23:23:57.199Z,99651.72
2023-03-07T23:26:27.796Z,99656.78
2023-03-07T23:28:56.451Z,99661.53
2023-03-07T23:31:26.533Z,99655.50
2023-03-07T23:33:57.176Z,99659.34
2023-03-07T23:36:29.017Z,99660.72
2023-03-07T23:38:58.296Z,99652.56
2023-03-07T23:41:27.163Z,99655.81
2023-03-07T23:43:56.396Z,99653.34
2023-03-07T23:46:25.337Z,99651.88
2023-03-07T23:48:54.184Z,99651.66
2023-03-07T23:51:22.957Z,99655.13
2023-03-07T23:53:52.883Z,99646.25
2023-03-07T23:56:21.639Z,99663.53
2023-03-07T23:58:51.534Z,99661.53
